sensor_id;sensor_type;location;lat;lon;timestamp;P1;durP1;ratioP1;P2;durP2;ratioP2
57848;SDS011;68645;44.762;21.516;2023-12-07T00:01:59;37.25;;;23.25;;
57848;SDS011;68645;44.762;21.516;2023-12-07T00:04:28;39.97;;;24.55;;
57848;SDS011;68645;44.762;21.516;2023-12-07T00:06:54;40.30;;;26.10;;
57848;SDS011;68645;44.762;21.516;2023-12-07T00:09:20;54.85;;;31.98;;
57848;SDS011;68645;44.762;21.516;2023-12-07T00:11:46;49.22;;;28.75;;
57848;SDS011;68645;44.762;21.516;2023-12-07T00:14:12;51.85;;;28.27;;
57848;SDS011;68645;44.762;21.516;2023-12-07T00:16:38;47.63;;;28.48;;
57848;SDS011;68645;44.762;21.516;2023-12-07T00:19:04;61.45;;;34.20;;
57848;SDS011;68645;44.762;21.516;2023-12-07T00:21:30;53.78;;;31.75;;
57848;SDS011;68645;44.762;21.516;2023-12-07T00:23:57;43.85;;;27.33;;
57848;SDS011;68645;44.762;21.516;2023-12-07T00:26:23;42.15;;;23.60;;
57848;SDS011;68645;44.762;21.516;2023-12-07T00:28:49;52.97;;;28.35;;
57848;SDS011;68645;44.762;21.516;2023-12-07T00:31:15;54.85;;;29.85;;
57848;SDS011;68645;44.762;21.516;2023-12-07T00:33:41;62.17;;;35.55;;
57848;SDS011;68645;44.762;21.516;2023-12-07T00:36:07;53.72;;;31.83;;
57848;SDS011;68645;44.762;21.516;2023-12-07T00:38:34;56.67;;;34.53;;
57848;SDS011;68645;44.762;21.516;2023-12-07T00:41:01;49.90;;;29.35;;
57848;SDS011;68645;44.762;21.516;2023-12-07T00:43:27;47.15;;;27.38;;
57848;SDS011;68645;44.762;21.516;2023-12-07T00:45:53;54.03;;;29.50;;
57848;SDS011;68645;44.762;21.516;2023-12-07T00:48:19;65.95;;;36.63;;
57848;SDS011;68645;44.762;21.516;2023-12-07T00:50:45;63.05;;;34.42;;
57848;SDS011;68645;44.762;21.516;2023-12-07T00:53:12;59.20;;;33.78;;
57848;SDS011;68645;44.762;21.516;2023-12-07T00:55:38;70.97;;;35.03;;
57848;SDS011;68645;44.762;21.516;2023-12-07T00:58:05;56.58;;;31.88;;
57848;SDS011;68645;44.762;21.516;2023-12-07T01:00:31;62.22;;;33.85;;
57848;SDS011;68645;44.762;21.516;2023-12-07T01:02:57;63.83;;;34.60;;
57848;SDS011;68645;44.762;21.516;2023-12-07T01:05:23;66.63;;;36.30;;
57848;SDS011;68645;44.762;21.516;2023-12-07T01:07:49;63.60;;;36.83;;
57848;SDS011;68645;44.762;21.516;2023-12-07T01:10:15;55.70;;;32.08;;
57848;SDS011;68645;44.762;21.516;2023-12-07T01:12:42;59.28;;;33.70;;
57848;SDS011;68645;44.762;21.516;2023-12-07T01:15:08;46.38;;;29.10;;
57848;SDS011;68645;44.762;21.516;2023-12-07T01:17:34;45.83;;;27.05;;
57848;SDS011;68645;44.762;21.516;2023-12-07T01:20:00;43.92;;;26.45;;
57848;SDS011;68645;44.762;21.516;2023-12-07T01:22:29;48.05;;;28.23;;
57848;SDS011;68645;44.762;21.516;2023-12-07T01:24:55;48.72;;;29.73;;
57848;SDS011;68645;44.762;21.516;2023-12-07T01:27:21;48.67;;;29.17;;
57848;SDS011;68645;44.762;21.516;2023-12-07T01:29:47;62.58;;;39.35;;
57848;SDS011;68645;44.762;21.516;2023-12-07T01:32:14;50.03;;;29.70;;
57848;SDS011;68645;44.762;21.516;2023-12-07T01:34:41;48.33;;;29.85;;
57848;SDS011;68645;44.762;21.516;2023-12-07T01:37:07;50.15;;;32.45;;
57848;SDS011;68645;44.762;21.516;2023-12-07T01:39:33;50.92;;;31.23;;
57848;SDS011;68645;44.762;21.516;2023-12-07T01:41:59;45.90;;;29.40;;
57848;SDS011;68645;44.762;21.516;2023-12-07T01:44:25;52.92;;;32.08;;
57848;SDS011;68645;44.762;21.516;2023-12-07T01:46:53;49.72;;;30.92;;
57848;SDS011;68645;44.762;21.516;2023-12-07T01:49:19;55.65;;;34.13;;
57848;SDS011;68645;44.762;21.516;2023-12-07T01:51:45;56.53;;;34.47;;
57848;SDS011;68645;44.762;21.516;2023-12-07T01:54:11;54.55;;;34.25;;
57848;SDS011;68645;44.762;21.516;2023-12-07T01:56:38;55.70;;;34.92;;
57848;SDS011;68645;44.762;21.516;2023-12-07T01:59:04;63.42;;;36.30;;
57848;SDS011;68645;44.762;21.516;2023-12-07T02:01:30;61.90;;;37.58;;
57848;SDS011;68645;44.762;21.516;2023-12-07T02:03:56;65.22;;;37.95;;
57848;SDS011;68645;44.762;21.516;2023-12-07T02:06:22;58.13;;;36.35;;
57848;SDS011;68645;44.762;21.516;2023-12-07T02:08:48;59.25;;;36.50;;
57848;SDS011;68645;44.762;21.516;2023-12-07T02:11:14;55.60;;;33.83;;
57848;SDS011;68645;44.762;21.516;2023-12-07T02:13:41;53.50;;;33.80;;
57848;SDS011;68645;44.762;21.516;2023-12-07T02:16:08;57.67;;;35.03;;
57848;SDS011;68645;44.762;21.516;2023-12-07T02:18:45;54.30;;;34.70;;
57848;SDS011;68645;44.762;21.516;2023-12-07T02:21:25;62.47;;;37.58;;
57848;SDS011;68645;44.762;21.516;2023-12-07T02:23:54;58.97;;;33.13;;
57848;SDS011;68645;44.762;21.516;2023-12-07T02:26:21;71.55;;;38.65;;
57848;SDS011;68645;44.762;21.516;2023-12-07T02:28:49;89.15;;;41.05;;
57848;SDS011;68645;44.762;21.516;2023-12-07T02:31:17;102.55;;;51.03;;
57848;SDS011;68645;44.762;21.516;2023-12-07T02:33:43;105.00;;;52.08;;
57848;SDS011;68645;44.762;21.516;2023-12-07T02:36:10;94.05;;;46.00;;
57848;SDS011;68645;44.762;21.516;2023-12-07T02:38:37;79.07;;;38.65;;
57848;SDS011;68645;44.762;21.516;2023-12-07T02:41:03;73.75;;;39.00;;
57848;SDS011;68645;44.762;21.516;2023-12-07T02:43:30;99.57;;;49.20;;
57848;SDS011;68645;44.762;21.516;2023-12-07T02:45:56;84.85;;;42.00;;
57848;SDS011;68645;44.762;21.516;2023-12-07T02:48:23;88.80;;;46.55;;
57848;SDS011;68645;44.762;21.516;2023-12-07T02:50:49;103.30;;;49.75;;
57848;SDS011;68645;44.762;21.516;2023-12-07T02:53:15;89.47;;;42.95;;
57848;SDS011;68645;44.762;21.516;2023-12-07T02:55:41;106.40;;;48.75;;
57848;SDS011;68645;44.762;21.516;2023-12-07T02:58:08;99.43;;;46.25;;
57848;SDS011;68645;44.762;21.516;2023-12-07T03:00:34;103.22;;;47.20;;
57848;SDS011;68645;44.762;21.516;2023-12-07T03:03:00;97.00;;;43.00;;
57848;SDS011;68645;44.762;21.516;2023-12-07T03:05:26;72.07;;;36.20;;
57848;SDS011;68645;44.762;21.516;2023-12-07T03:07:52;94.47;;;42.92;;
57848;SDS011;68645;44.762;21.516;2023-12-07T03:10:18;69.90;;;34.35;;
57848;SDS011;68645;44.762;21.516;2023-12-07T03:12:44;66.70;;;35.35;;
57848;SDS011;68645;44.762;21.516;2023-12-07T03:15:11;55.28;;;31.73;;
57848;SDS011;68645;44.762;21.516;2023-12-07T03:17:38;57.33;;;33.22;;
57848;SDS011;68645;44.762;21.516;2023-12-07T03:20:05;62.53;;;33.65;;
57848;SDS011;68645;44.762;21.516;2023-12-07T03:22:31;68.70;;;35.70;;
57848;SDS011;68645;44.762;21.516;2023-12-07T03:24:57;66.30;;;34.58;;
57848;SDS011;68645;44.762;21.516;2023-12-07T03:27:23;63.17;;;35.20;;
57848;SDS011;68645;44.762;21.516;2023-12-07T03:29:49;58.42;;;32.17;;
57848;SDS011;68645;44.762;21.516;2023-12-07T03:32:16;59.35;;;32.97;;
57848;SDS011;68645;44.762;21.516;2023-12-07T03:34:42;61.08;;;34.58;;
57848;SDS011;68645;44.762;21.516;2023-12-07T03:37:08;61.72;;;32.63;;
57848;SDS011;68645;44.762;21.516;2023-12-07T03:39:34;52.50;;;30.23;;
57848;SDS011;68645;44.762;21.516;2023-12-07T03:42:01;65.53;;;33.80;;
57848;SDS011;68645;44.762;21.516;2023-12-07T03:44:27;58.80;;;31.90;;
57848;SDS011;68645;44.762;21.516;2023-12-07T03:46:53;47.15;;;26.55;;
57848;SDS011;68645;44.762;21.516;2023-12-07T03:49:19;59.25;;;35.88;;
57848;SDS011;68645;44.762;21.516;2023-12-07T03:51:45;53.35;;;32.80;;
57848;SDS011;68645;44.762;21.516;2023-12-07T03:54:11;64.68;;;39.17;;
57848;SDS011;68645;44.762;21.516;2023-12-07T03:56:37;60.22;;;35.80;;
57848;SDS011;68645;44.762;21.516;2023-12-07T03:59:05;55.42;;;32.22;;
57848;SDS011;68645;44.762;21.516;2023-12-07T04:01:32;40.42;;;24.55;;
57848;SDS011;68645;44.762;21.516;2023-12-07T04:03:58;42.97;;;25.52;;
57848;SDS011;68645;44.762;21.516;2023-12-07T04:06:25;73.63;;;42.28;;
57848;SDS011;68645;44.762;21.516;2023-12-07T04:08:52;92.28;;;53.88;;
57848;SDS011;68645;44.762;21.516;2023-12-07T04:11:18;71.50;;;41.63;;
57848;SDS011;68645;44.762;21.516;2023-12-07T04:13:44;74.15;;;41.33;;
57848;SDS011;68645;44.762;21.516;2023-12-07T04:16:11;70.15;;;40.85;;
57848;SDS011;68645;44.762;21.516;2023-12-07T04:18:37;66.28;;;38.45;;
57848;SDS011;68645;44.762;21.516;2023-12-07T04:21:03;63.88;;;39.65;;
57848;SDS011;68645;44.762;21.516;2023-12-07T04:23:30;63.22;;;36.83;;
57848;SDS011;68645;44.762;21.516;2023-12-07T04:25:57;83.30;;;39.88;;
57848;SDS011;68645;44.762;21.516;2023-12-07T04:28:23;82.88;;;40.13;;
57848;SDS011;68645;44.762;21.516;2023-12-07T04:30:49;69.63;;;42.20;;
57848;SDS011;68645;44.762;21.516;2023-12-07T04:33:15;51.72;;;32.58;;
57848;SDS011;68645;44.762;21.516;2023-12-07T04:35:41;54.08;;;32.97;;
57848;SDS011;68645;44.762;21.516;2023-12-07T04:38:07;56.65;;;32.63;;
57848;SDS011;68645;44.762;21.516;2023-12-07T04:40:34;55.55;;;33.97;;
57848;SDS011;68645;44.762;21.516;2023-12-07T04:43:00;53.25;;;31.98;;
57848;SDS011;68645;44.762;21.516;2023-12-07T04:45:26;57.28;;;32.40;;
57848;SDS011;68645;44.762;21.516;2023-12-07T04:47:52;49.80;;;31.95;;
57848;SDS011;68645;44.762;21.516;2023-12-07T04:50:19;49.67;;;31.52;;
57848;SDS011;68645;44.762;21.516;2023-12-07T04:52:45;49.25;;;29.50;;
57848;SDS011;68645;44.762;21.516;2023-12-07T04:55:11;44.33;;;27.52;;
57848;SDS011;68645;44.762;21.516;2023-12-07T04:57:37;49.22;;;29.33;;
57848;SDS011;68645;44.762;21.516;2023-12-07T05:00:03;52.50;;;29.90;;
57848;SDS011;68645;44.762;21.516;2023-12-07T05:02:35;52.97;;;30.77;;
57848;SDS011;68645;44.762;21.516;2023-12-07T05:05:02;72.65;;;47.92;;
57848;SDS011;68645;44.762;21.516;2023-12-07T05:07:30;84.95;;;53.88;;
57848;SDS011;68645;44.762;21.516;2023-12-07T05:09:56;101.63;;;68.75;;
57848;SDS011;68645;44.762;21.516;2023-12-07T05:12:22;84.45;;;58.25;;
57848;SDS011;68645;44.762;21.516;2023-12-07T05:14:48;71.70;;;44.50;;
57848;SDS011;68645;44.762;21.516;2023-12-07T05:17:15;59.28;;;36.88;;
57848;SDS011;68645;44.762;21.516;2023-12-07T05:19:41;65.07;;;43.72;;
57848;SDS011;68645;44.762;21.516;2023-12-07T05:22:07;100.93;;;61.50;;
57848;SDS011;68645;44.762;21.516;2023-12-07T05:24:35;95.38;;;54.05;;
57848;SDS011;68645;44.762;21.516;2023-12-07T05:27:01;112.30;;;64.70;;
57848;SDS011;68645;44.762;21.516;2023-12-07T05:29:29;101.05;;;60.10;;
57848;SDS011;68645;44.762;21.516;2023-12-07T05:31:55;71.20;;;43.08;;
57848;SDS011;68645;44.762;21.516;2023-12-07T05:34:21;81.63;;;46.65;;
57848;SDS011;68645;44.762;21.516;2023-12-07T05:36:47;72.60;;;48.65;;
57848;SDS011;68645;44.762;21.516;2023-12-07T05:39:13;80.22;;;50.28;;
57848;SDS011;68645;44.762;21.516;2023-12-07T05:41:40;74.93;;;48.05;;
57848;SDS011;68645;44.762;21.516;2023-12-07T05:44:06;78.10;;;48.22;;
57848;SDS011;68645;44.762;21.516;2023-12-07T05:46:34;85.75;;;53.17;;
57848;SDS011;68645;44.762;21.516;2023-12-07T05:49:01;98.03;;;55.00;;
57848;SDS011;68645;44.762;21.516;2023-12-07T05:51:28;155.82;;;82.43;;
57848;SDS011;68645;44.762;21.516;2023-12-07T05:53:54;142.23;;;79.80;;
57848;SDS011;68645;44.762;21.516;2023-12-07T05:56:20;135.32;;;74.18;;
57848;SDS011;68645;44.762;21.516;2023-12-07T05:58:47;123.40;;;66.93;;
57848;SDS011;68645;44.762;21.516;2023-12-07T06:01:16;135.90;;;77.82;;
57848;SDS011;68645;44.762;21.516;2023-12-07T06:03:42;60.60;;;35.03;;
57848;SDS011;68645;44.762;21.516;2023-12-07T06:06:09;65.07;;;34.30;;
57848;SDS011;68645;44.762;21.516;2023-12-07T06:08:37;82.18;;;43.47;;
57848;SDS011;68645;44.762;21.516;2023-12-07T06:11:03;69.00;;;36.65;;
57848;SDS011;68645;44.762;21.516;2023-12-07T06:13:29;70.40;;;37.88;;
57848;SDS011;68645;44.762;21.516;2023-12-07T06:15:56;72.20;;;40.78;;
57848;SDS011;68645;44.762;21.516;2023-12-07T06:18:22;81.82;;;44.95;;
57848;SDS011;68645;44.762;21.516;2023-12-07T06:20:49;70.25;;;42.47;;
57848;SDS011;68645;44.762;21.516;2023-12-07T06:23:15;82.13;;;46.50;;
57848;SDS011;68645;44.762;21.516;2023-12-07T06:25:41;85.38;;;47.75;;
57848;SDS011;68645;44.762;21.516;2023-12-07T06:28:07;69.95;;;40.80;;
57848;SDS011;68645;44.762;21.516;2023-12-07T06:30:33;69.97;;;37.10;;
57848;SDS011;68645;44.762;21.516;2023-12-07T06:33:00;65.90;;;35.78;;
57848;SDS011;68645;44.762;21.516;2023-12-07T06:35:26;55.58;;;35.15;;
57848;SDS011;68645;44.762;21.516;2023-12-07T06:37:52;93.97;;;49.78;;
57848;SDS011;68645;44.762;21.516;2023-12-07T06:40:18;101.82;;;60.22;;
57848;SDS011;68645;44.762;21.516;2023-12-07T06:42:45;93.03;;;57.42;;
57848;SDS011;68645;44.762;21.516;2023-12-07T06:45:12;109.05;;;64.82;;
57848;SDS011;68645;44.762;21.516;2023-12-07T06:47:39;106.47;;;58.20;;
57848;SDS011;68645;44.762;21.516;2023-12-07T06:50:07;90.07;;;52.88;;
57848;SDS011;68645;44.762;21.516;2023-12-07T06:52:35;82.40;;;46.10;;
57848;SDS011;68645;44.762;21.516;2023-12-07T06:55:01;88.40;;;50.33;;
57848;SDS011;68645;44.762;21.516;2023-12-07T06:57:28;81.30;;;43.85;;
57848;SDS011;68645;44.762;21.516;2023-12-07T06:59:54;78.57;;;45.88;;
57848;SDS011;68645;44.762;21.516;2023-12-07T07:02:20;70.78;;;39.88;;
57848;SDS011;68645;44.762;21.516;2023-12-07T07:04:47;74.40;;;41.35;;
57848;SDS011;68645;44.762;21.516;2023-12-07T07:07:14;75.20;;;40.25;;
57848;SDS011;68645;44.762;21.516;2023-12-07T07:09:40;68.10;;;38.10;;
57848;SDS011;68645;44.762;21.516;2023-12-07T07:12:07;70.07;;;41.35;;
57848;SDS011;68645;44.762;21.516;2023-12-07T07:14:33;72.78;;;42.05;;
57848;SDS011;68645;44.762;21.516;2023-12-07T07:17:00;78.30;;;43.40;;
57848;SDS011;68645;44.762;21.516;2023-12-07T07:19:26;68.40;;;37.90;;
57848;SDS011;68645;44.762;21.516;2023-12-07T07:21:52;78.70;;;44.30;;
57848;SDS011;68645;44.762;21.516;2023-12-07T07:24:18;77.68;;;45.22;;
57848;SDS011;68645;44.762;21.516;2023-12-07T07:26:44;78.40;;;42.85;;
57848;SDS011;68645;44.762;21.516;2023-12-07T07:29:10;78.90;;;44.38;;
57848;SDS011;68645;44.762;21.516;2023-12-07T07:31:36;77.55;;;42.90;;
57848;SDS011;68645;44.762;21.516;2023-12-07T07:34:03;79.38;;;44.67;;
57848;SDS011;68645;44.762;21.516;2023-12-07T07:36:29;74.53;;;42.40;;
57848;SDS011;68645;44.762;21.516;2023-12-07T07:38:56;73.07;;;41.88;;
57848;SDS011;68645;44.762;21.516;2023-12-07T07:41:22;71.13;;;41.85;;
57848;SDS011;68645;44.762;21.516;2023-12-07T07:43:48;69.80;;;41.58;;
57848;SDS011;68645;44.762;21.516;2023-12-07T07:46:16;62.38;;;37.25;;
57848;SDS011;68645;44.762;21.516;2023-12-07T07:48:42;64.15;;;35.80;;
57848;SDS011;68645;44.762;21.516;2023-12-07T07:51:08;63.58;;;38.50;;
57848;SDS011;68645;44.762;21.516;2023-12-07T07:53:34;59.42;;;37.78;;
57848;SDS011;68645;44.762;21.516;2023-12-07T07:56:00;56.67;;;32.65;;
57848;SDS011;68645;44.762;21.516;2023-12-07T07:58:27;92.13;;;52.75;;
57848;SDS011;68645;44.762;21.516;2023-12-07T08:00:53;83.25;;;46.05;;
57848;SDS011;68645;44.762;21.516;2023-12-07T08:03:19;59.78;;;34.78;;
57848;SDS011;68645;44.762;21.516;2023-12-07T08:05:45;59.08;;;30.23;;
57848;SDS011;68645;44.762;21.516;2023-12-07T08:08:11;69.80;;;39.63;;
57848;SDS011;68645;44.762;21.516;2023-12-07T08:10:37;105.72;;;57.30;;
57848;SDS011;68645;44.762;21.516;2023-12-07T08:13:04;125.93;;;70.47;;
57848;SDS011;68645;44.762;21.516;2023-12-07T08:15:32;153.23;;;86.10;;
57848;SDS011;68645;44.762;21.516;2023-12-07T08:17:58;140.30;;;79.28;;
57848;SDS011;68645;44.762;21.516;2023-12-07T08:20:24;114.88;;;67.97;;
57848;SDS011;68645;44.762;21.516;2023-12-07T08:22:51;131.68;;;79.63;;
57848;SDS011;68645;44.762;21.516;2023-12-07T08:25:17;142.25;;;80.15;;
57848;SDS011;68645;44.762;21.516;2023-12-07T08:27:43;111.53;;;66.95;;
57848;SDS011;68645;44.762;21.516;2023-12-07T08:30:11;115.95;;;66.65;;
57848;SDS011;68645;44.762;21.516;2023-12-07T08:32:37;116.10;;;68.40;;
57848;SDS011;68645;44.762;21.516;2023-12-07T08:35:04;171.95;;;106.30;;
57848;SDS011;68645;44.762;21.516;2023-12-07T08:37:33;172.75;;;101.32;;
57848;SDS011;68645;44.762;21.516;2023-12-07T08:39:59;197.85;;;121.57;;
57848;SDS011;68645;44.762;21.516;2023-12-07T08:42:25;114.78;;;65.75;;
57848;SDS011;68645;44.762;21.516;2023-12-07T08:44:52;143.02;;;74.47;;
57848;SDS011;68645;44.762;21.516;2023-12-07T08:47:18;214.52;;;101.13;;
57848;SDS011;68645;44.762;21.516;2023-12-07T08:49:44;145.23;;;74.28;;
57848;SDS011;68645;44.762;21.516;2023-12-07T08:52:11;94.80;;;52.53;;
57848;SDS011;68645;44.762;21.516;2023-12-07T08:54:37;127.93;;;69.55;;
57848;SDS011;68645;44.762;21.516;2023-12-07T08:57:03;105.13;;;60.88;;
57848;SDS011;68645;44.762;21.516;2023-12-07T08:59:29;103.18;;;58.75;;
57848;SDS011;68645;44.762;21.516;2023-12-07T09:01:56;109.55;;;62.22;;
57848;SDS011;68645;44.762;21.516;2023-12-07T09:04:22;124.55;;;72.72;;
57848;SDS011;68645;44.762;21.516;2023-12-07T09:06:48;92.97;;;55.17;;
57848;SDS011;68645;44.762;21.516;2023-12-07T09:09:14;66.25;;;37.53;;
57848;SDS011;68645;44.762;21.516;2023-12-07T09:11:40;61.67;;;34.92;;
57848;SDS011;68645;44.762;21.516;2023-12-07T09:14:07;57.47;;;32.65;;
57848;SDS011;68645;44.762;21.516;2023-12-07T09:16:33;52.40;;;30.70;;
57848;SDS011;68645;44.762;21.516;2023-12-07T09:18:59;68.18;;;38.22;;
57848;SDS011;68645;44.762;21.516;2023-12-07T09:21:27;82.30;;;48.17;;
57848;SDS011;68645;44.762;21.516;2023-12-07T09:23:53;83.13;;;47.83;;
57848;SDS011;68645;44.762;21.516;2023-12-07T09:26:19;73.35;;;40.25;;
57848;SDS011;68645;44.762;21.516;2023-12-07T09:28:46;58.13;;;30.95;;
57848;SDS011;68645;44.762;21.516;2023-12-07T09:31:12;234.52;;;111.30;;
57848;SDS011;68645;44.762;21.516;2023-12-07T09:33:38;165.05;;;81.97;;
57848;SDS011;68645;44.762;21.516;2023-12-07T09:36:04;111.18;;;55.80;;
57848;SDS011;68645;44.762;21.516;2023-12-07T09:38:34;85.38;;;46.28;;
57848;SDS011;68645;44.762;21.516;2023-12-07T09:41:02;76.90;;;41.40;;
57848;SDS011;68645;44.762;21.516;2023-12-07T09:43:28;50.08;;;27.70;;
57848;SDS011;68645;44.762;21.516;2023-12-07T09:45:54;62.53;;;32.47;;
57848;SDS011;68645;44.762;21.516;2023-12-07T09:48:21;71.30;;;40.88;;
57848;SDS011;68645;44.762;21.516;2023-12-07T09:50:47;86.75;;;51.67;;
57848;SDS011;68645;44.762;21.516;2023-12-07T09:53:13;91.10;;;51.03;;
57848;SDS011;68645;44.762;21.516;2023-12-07T09:55:39;103.75;;;56.80;;
57848;SDS011;68645;44.762;21.516;2023-12-07T09:58:06;111.78;;;62.80;;
57848;SDS011;68645;44.762;21.516;2023-12-07T10:00:32;267.65;;;150.80;;
57848;SDS011;68645;44.762;21.516;2023-12-07T10:02:58;244.93;;;139.13;;
57848;SDS011;68645;44.762;21.516;2023-12-07T10:05:25;119.97;;;66.07;;
57848;SDS011;68645;44.762;21.516;2023-12-07T10:07:51;68.03;;;37.08;;
57848;SDS011;68645;44.762;21.516;2023-12-07T10:10:17;99.20;;;60.30;;
57848;SDS011;68645;44.762;21.516;2023-12-07T10:15:13;117.13;;;76.90;;
57848;SDS011;68645;44.762;21.516;2023-12-07T10:17:46;108.55;;;84.30;;
57848;SDS011;68645;44.762;21.516;2023-12-07T10:20:14;61.72;;;32.30;;
57848;SDS011;68645;44.762;21.516;2023-12-07T10:22:40;80.60;;;42.67;;
57848;SDS011;68645;44.762;21.516;2023-12-07T10:25:07;86.18;;;49.55;;
57848;SDS011;68645;44.762;21.516;2023-12-07T10:27:33;82.10;;;44.80;;
57848;SDS011;68645;44.762;21.516;2023-12-07T10:30:00;84.57;;;46.22;;
57848;SDS011;68645;44.762;21.516;2023-12-07T10:32:26;69.95;;;37.95;;
57848;SDS011;68645;44.762;21.516;2023-12-07T10:34:53;79.68;;;43.13;;
57848;SDS011;68645;44.762;21.516;2023-12-07T10:37:21;67.78;;;34.72;;
57848;SDS011;68645;44.762;21.516;2023-12-07T10:39:48;63.45;;;34.28;;
57848;SDS011;68645;44.762;21.516;2023-12-07T10:42:14;72.68;;;39.60;;
57848;SDS011;68645;44.762;21.516;2023-12-07T10:44:42;59.13;;;33.72;;
57848;SDS011;68645;44.762;21.516;2023-12-07T10:47:11;60.65;;;33.58;;
57848;SDS011;68645;44.762;21.516;2023-12-07T10:49:40;72.72;;;39.75;;
57848;SDS011;68645;44.762;21.516;2023-12-07T10:52:11;53.63;;;29.63;;
57848;SDS011;68645;44.762;21.516;2023-12-07T10:54:50;118.38;;;68.82;;
57848;SDS011;68645;44.762;21.516;2023-12-07T10:57:17;74.53;;;44.58;;
57848;SDS011;68645;44.762;21.516;2023-12-07T10:59:43;73.18;;;45.90;;
57848;SDS011;68645;44.762;21.516;2023-12-07T11:02:11;96.30;;;52.55;;
57848;SDS011;68645;44.762;21.516;2023-12-07T11:04:39;69.40;;;43.78;;
57848;SDS011;68645;44.762;21.516;2023-12-07T11:07:07;66.80;;;40.25;;
57848;SDS011;68645;44.762;21.516;2023-12-07T11:09:35;64.85;;;34.67;;
57848;SDS011;68645;44.762;21.516;2023-12-07T11:12:05;59.03;;;31.70;;
57848;SDS011;68645;44.762;21.516;2023-12-07T11:14:33;52.85;;;28.92;;
57848;SDS011;68645;44.762;21.516;2023-12-07T11:16:59;88.03;;;46.38;;
57848;SDS011;68645;44.762;21.516;2023-12-07T11:21:57;56.55;;;31.08;;
57848;SDS011;68645;44.762;21.516;2023-12-07T11:24:24;49.83;;;27.38;;
57848;SDS011;68645;44.762;21.516;2023-12-07T11:26:53;54.33;;;28.45;;
57848;SDS011;68645;44.762;21.516;2023-12-07T11:29:20;57.10;;;29.60;;
57848;SDS011;68645;44.762;21.516;2023-12-07T11:31:46;48.78;;;27.63;;
57848;SDS011;68645;44.762;21.516;2023-12-07T11:34:12;51.58;;;29.08;;
57848;SDS011;68645;44.762;21.516;2023-12-07T11:36:41;68.28;;;39.65;;
57848;SDS011;68645;44.762;21.516;2023-12-07T11:41:43;75.40;;;45.65;;
57848;SDS011;68645;44.762;21.516;2023-12-07T11:44:10;77.90;;;47.47;;
57848;SDS011;68645;44.762;21.516;2023-12-07T11:46:37;56.35;;;29.73;;
57848;SDS011;68645;44.762;21.516;2023-12-07T11:49:03;59.15;;;31.35;;
57848;SDS011;68645;44.762;21.516;2023-12-07T11:51:33;59.25;;;31.90;;
57848;SDS011;68645;44.762;21.516;2023-12-07T11:53:59;57.97;;;30.17;;
57848;SDS011;68645;44.762;21.516;2023-12-07T11:56:25;56.92;;;31.05;;
57848;SDS011;68645;44.762;21.516;2023-12-07T11:58:51;63.53;;;32.63;;
57848;SDS011;68645;44.762;21.516;2023-12-07T12:01:17;67.85;;;32.75;;
57848;SDS011;68645;44.762;21.516;2023-12-07T12:03:44;117.80;;;52.83;;
57848;SDS011;68645;44.762;21.516;2023-12-07T12:06:10;126.75;;;54.35;;
57848;SDS011;68645;44.762;21.516;2023-12-07T12:08:36;308.42;;;114.03;;
57848;SDS011;68645;44.762;21.516;2023-12-07T12:11:03;157.18;;;67.80;;
57848;SDS011;68645;44.762;21.516;2023-12-07T12:13:33;67.88;;;36.28;;
57848;SDS011;68645;44.762;21.516;2023-12-07T12:15:59;94.40;;;46.17;;
57848;SDS011;68645;44.762;21.516;2023-12-07T12:18:26;101.90;;;51.15;;
57848;SDS011;68645;44.762;21.516;2023-12-07T12:20:53;87.55;;;45.90;;
57848;SDS011;68645;44.762;21.516;2023-12-07T12:23:19;80.97;;;41.47;;
57848;SDS011;68645;44.762;21.516;2023-12-07T12:25:46;79.03;;;39.65;;
57848;SDS011;68645;44.762;21.516;2023-12-07T12:28:16;83.85;;;42.70;;
57848;SDS011;68645;44.762;21.516;2023-12-07T12:30:47;77.65;;;42.47;;
57848;SDS011;68645;44.762;21.516;2023-12-07T12:33:13;68.85;;;38.75;;
57848;SDS011;68645;44.762;21.516;2023-12-07T12:35:40;65.88;;;35.67;;
57848;SDS011;68645;44.762;21.516;2023-12-07T12:38:09;65.47;;;33.78;;
57848;SDS011;68645;44.762;21.516;2023-12-07T12:40:36;73.22;;;38.40;;
57848;SDS011;68645;44.762;21.516;2023-12-07T12:43:02;86.43;;;41.75;;
57848;SDS011;68645;44.762;21.516;2023-12-07T12:45:28;85.40;;;46.05;;
57848;SDS011;68645;44.762;21.516;2023-12-07T12:47:54;94.57;;;55.67;;
57848;SDS011;68645;44.762;21.516;2023-12-07T12:50:34;96.88;;;50.88;;
57848;SDS011;68645;44.762;21.516;2023-12-07T12:53:08;105.93;;;56.90;;
57848;SDS011;68645;44.762;21.516;2023-12-07T12:55:39;163.98;;;75.57;;
57848;SDS011;68645;44.762;21.516;2023-12-07T12:58:06;172.60;;;73.40;;
57848;SDS011;68645;44.762;21.516;2023-12-07T13:00:33;156.30;;;75.10;;
57848;SDS011;68645;44.762;21.516;2023-12-07T13:03:03;121.15;;;58.42;;
57848;SDS011;68645;44.762;21.516;2023-12-07T13:05:29;113.53;;;54.42;;
57848;SDS011;68645;44.762;21.516;2023-12-07T13:07:57;101.13;;;49.78;;
57848;SDS011;68645;44.762;21.516;2023-12-07T13:10:25;112.60;;;56.60;;
57848;SDS011;68645;44.762;21.516;2023-12-07T13:12:51;92.45;;;47.47;;
57848;SDS011;68645;44.762;21.516;2023-12-07T13:15:17;115.28;;;54.42;;
57848;SDS011;68645;44.762;21.516;2023-12-07T13:17:43;123.57;;;60.80;;
57848;SDS011;68645;44.762;21.516;2023-12-07T13:20:10;110.78;;;52.47;;
57848;SDS011;68645;44.762;21.516;2023-12-07T13:22:37;121.95;;;61.60;;
57848;SDS011;68645;44.762;21.516;2023-12-07T13:25:04;111.57;;;54.65;;
57848;SDS011;68645;44.762;21.516;2023-12-07T13:27:30;111.18;;;52.97;;
57848;SDS011;68645;44.762;21.516;2023-12-07T13:29:57;103.43;;;52.13;;
57848;SDS011;68645;44.762;21.516;2023-12-07T13:32:24;112.43;;;56.15;;
57848;SDS011;68645;44.762;21.516;2023-12-07T13:34:50;121.70;;;60.25;;
57848;SDS011;68645;44.762;21.516;2023-12-07T13:37:16;128.07;;;67.53;;
57848;SDS011;68645;44.762;21.516;2023-12-07T13:39:42;138.23;;;76.47;;
57848;SDS011;68645;44.762;21.516;2023-12-07T13:42:08;158.43;;;78.95;;
57848;SDS011;68645;44.762;21.516;2023-12-07T13:44:35;135.85;;;74.18;;
57848;SDS011;68645;44.762;21.516;2023-12-07T13:47:01;160.48;;;87.55;;
57848;SDS011;68645;44.762;21.516;2023-12-07T13:49:28;208.63;;;111.07;;
57848;SDS011;68645;44.762;21.516;2023-12-07T13:51:55;192.73;;;103.43;;
57848;SDS011;68645;44.762;21.516;2023-12-07T13:54:21;166.27;;;90.07;;
57848;SDS011;68645;44.762;21.516;2023-12-07T13:56:47;186.55;;;101.70;;
57848;SDS011;68645;44.762;21.516;2023-12-07T13:59:14;173.60;;;94.55;;
57848;SDS011;68645;44.762;21.516;2023-12-07T14:01:40;151.32;;;83.18;;
57848;SDS011;68645;44.762;21.516;2023-12-07T14:04:06;145.18;;;80.07;;
57848;SDS011;68645;44.762;21.516;2023-12-07T14:06:33;125.15;;;64.03;;
57848;SDS011;68645;44.762;21.516;2023-12-07T14:09:00;151.00;;;84.95;;
57848;SDS011;68645;44.762;21.516;2023-12-07T14:11:27;115.88;;;56.58;;